Terminal Aerodrome Forecast
Issued by NWS Melbourne, FL

Home | Current Version | Previous Version | Text Only | Print | Product List | Glossary On
Versions: 1 2 3 4 5 6 7 8 9 10 11
532
FTUS42 KMLB 301738
TAFVRB
TAF
KVRB 301738Z 3018/3118 13012KT P6SM FEW050 SCT250
     FM310000 15008KT P6SM SCT060
     FM310600 18006KT P6SM SCT040
     FM311500 19014G20KT P6SM FEW030=

USA.gov is the U.S. government's official web portal to all federal, state and local government web resources and services.